createdAt,value
2023-03-22T00:00:15.223Z,15.05
2023-03-22T00:03:21.195Z,15.85
2023-03-22T00:06:23.771Z,17.23
2023-03-22T00:09:25.811Z,15.30
2023-03-22T00:12:27.857Z,16.85
2023-03-22T00:15:30.661Z,17.40
2023-03-22T00:18:33.087Z,13.02
2023-03-22T00:21:35.401Z,16.70
2023-03-22T00:24:37.998Z,19.37
2023-03-22T00:27:40.808Z,19.08
2023-03-22T00:30:51.048Z,18.02
2023-03-22T00:33:53.015Z,16.27
2023-03-22T00:36:56.412Z,18.80
2023-03-22T00:39:59.073Z,16.17
2023-03-22T00:43:01.148Z,17.50
2023-03-22T00:46:03.667Z,14.43
2023-03-22T00:49:05.813Z,17.58
2023-03-22T00:52:07.858Z,15.77
2023-03-22T00:55:10.219Z,16.07
2023-03-22T00:58:12.312Z,15.15
2023-03-22T01:01:14.996Z,15.07
2023-03-22T01:04:18.358Z,17.90
2023-03-22T01:07:21.564Z,16.13
2023-03-22T01:10:24.031Z,14.37
2023-03-22T01:13:26.219Z,15.55
2023-03-22T01:16:28.406Z,14.07
2023-03-22T01:19:31.370Z,13.65
2023-03-22T01:22:33.536Z,14.03
2023-03-22T01:25:35.825Z,12.93
2023-03-22T01:28:40.657Z,16.88
2023-03-22T01:31:43.342Z,15.23
2023-03-22T01:34:46.162Z,13.48
2023-03-22T01:37:48.276Z,13.07
2023-03-22T01:40:50.775Z,15.87
2023-03-22T01:44:09.432Z,13.40
2023-03-22T01:47:12.251Z,14.43
2023-03-22T01:50:17.223Z,15.75
2023-03-22T01:53:19.803Z,13.57
2023-03-22T01:56:25.649Z,14.37
2023-03-22T01:59:28.044Z,13.05
2023-03-22T02:02:31.037Z,15.82
2023-03-22T02:05:35.580Z,15.85
2023-03-22T02:08:37.720Z,15.60
2023-03-22T02:11:58.431Z,15.87
2023-03-22T02:15:27.950Z,12.98
2023-03-22T02:18:33.497Z,14.85
2023-03-22T02:22:10.120Z,13.63
2023-03-22T02:25:54.325Z,13.97
2023-03-22T02:29:22.336Z,13.70
2023-03-22T02:32:29.583Z,18.05
2023-03-22T02:35:46.538Z,14.88
2023-03-22T02:39:05.248Z,14.10
2023-03-22T02:42:35.691Z,13.97
2023-03-22T02:45:47.173Z,14.90
2023-03-22T02:49:07.945Z,14.32
2023-03-22T02:52:19.623Z,14.75
2023-03-22T02:55:31.818Z,12.68
2023-03-22T02:58:39.483Z,13.40
2023-03-22T03:01:55.143Z,14.63
2023-03-22T03:04:58.174Z,12.68
2023-03-22T03:08:02.806Z,14.45
2023-03-22T03:11:04.965Z,15.75
2023-03-22T03:14:07.068Z,16.00
2023-03-22T03:17:34.157Z,14.57
2023-03-22T03:20:55.478Z,13.90
2023-03-22T03:24:21.664Z,14.15
2023-03-22T03:27:36.687Z,16.38
2023-03-22T03:31:25.009Z,15.10
2023-03-22T03:34:36.237Z,14.87
2023-03-22T03:37:44.039Z,18.10
2023-03-22T03:40:50.495Z,17.10
2023-03-22T03:43:58.105Z,14.30
2023-03-22T03:47:03.355Z,17.37
2023-03-22T03:50:06.483Z,15.27
2023-03-22T03:53:09.992Z,14.43
2023-03-22T03:56:12.111Z,14.15
2023-03-22T03:59:16.426Z,14.68
2023-03-22T04:02:19.105Z,13.47
2023-03-22T04:05:22.027Z,14.87
2023-03-22T04:08:24.048Z,12.25
2023-03-22T04:11:28.422Z,13.25
2023-03-22T04:14:38.207Z,13.10
2023-03-22T04:17:41.759Z,14.67
2023-03-22T04:20:47.387Z,15.27
2023-03-22T04:23:52.664Z,14.90
2023-03-22T04:26:56.735Z,15.50
2023-03-22T04:30:01.117Z,16.08
2023-03-22T04:33:07.184Z,16.30
2023-03-22T04:36:17.601Z,16.87
2023-03-22T04:39:22.305Z,16.63
2023-03-22T04:42:26.377Z,16.35
2023-03-22T04:45:34.632Z,15.05
2023-03-22T04:48:38.124Z,13.37
2023-03-22T04:51:42.449Z,16.57
2023-03-22T04:54:44.621Z,14.77
2023-03-22T04:57:49.651Z,14.75
2023-03-22T05:00:56.773Z,16.27
2023-03-22T05:03:59.021Z,19.33
2023-03-22T05:07:01.081Z,20.80
2023-03-22T05:10:03.157Z,24.33
2023-03-22T05:13:05.304Z,17.67
2023-03-22T05:16:08.257Z,17.27
2023-03-22T05:19:16.217Z,19.03
2023-03-22T05:22:19.300Z,16.77
2023-03-22T05:25:21.240Z,19.23
2023-03-22T05:28:23.522Z,18.35
2023-03-22T05:31:28.628Z,15.95
2023-03-22T05:34:35.984Z,13.90
2023-03-22T05:37:38.354Z,13.40
2023-03-22T05:40:43.070Z,22.10
2023-03-22T05:43:45.262Z,14.80
2023-03-22T05:46:47.324Z,15.80
2023-03-22T05:49:49.393Z,13.63
2023-03-22T05:52:53.497Z,18.00
2023-03-22T05:56:00.818Z,15.55
2023-03-22T05:59:04.734Z,17.10
2023-03-22T06:02:06.980Z,18.40
2023-03-22T06:05:11.402Z,20.33
2023-03-22T06:08:13.407Z,16.73
2023-03-22T06:11:15.742Z,19.02
2023-03-22T06:14:17.793Z,14.98
2023-03-22T06:17:22.148Z,19.73
2023-03-22T06:20:25.897Z,21.40
2023-03-22T06:23:32.428Z,16.77
2023-03-22T06:26:34.507Z,16.15
2023-03-22T06:29:50.064Z,13.40
2023-03-22T06:32:55.477Z,11.57
2023-03-22T06:35:59.106Z,11.70
2023-03-22T06:39:05.280Z,14.10
2023-03-22T06:42:07.741Z,11.57
2023-03-22T06:45:12.206Z,14.32
2023-03-22T06:48:15.026Z,12.35
2023-03-22T06:51:17.381Z,14.80
2023-03-22T06:54:20.413Z,15.23
2023-03-22T06:57:22.580Z,14.90
2023-03-22T07:00:24.767Z,13.40
2023-03-22T07:03:29.842Z,14.85
2023-03-22T07:06:35.655Z,16.20
2023-03-22T07:09:41.993Z,14.63
2023-03-22T07:13:23.612Z,14.10
2023-03-22T07:16:35.901Z,15.15
2023-03-22T07:19:49.254Z,14.13
2023-03-22T07:23:13.644Z,15.07
2023-03-22T07:26:34.127Z,15.67
2023-03-22T07:34:19.188Z,15.20
2023-03-22T07:37:27.765Z,14.93
2023-03-22T07:40:33.824Z,19.93
2023-03-22T07:43:54.250Z,17.07
2023-03-22T07:47:00.908Z,14.52
2023-03-22T07:50:06.154Z,14.70
2023-03-22T07:53:09.992Z,16.42
2023-03-22T07:56:15.774Z,16.23
2023-03-22T07:59:18.097Z,14.87
2023-03-22T08:02:35.937Z,16.58
2023-03-22T08:05:43.060Z,14.95
2023-03-22T08:08:46.047Z,17.00
2023-03-22T08:11:48.164Z,19.70
2023-03-22T08:14:53.380Z,16.60
2023-03-22T08:18:00.906Z,15.63
2023-03-22T08:21:04.695Z,17.48
2023-03-22T08:24:07.479Z,17.25
2023-03-22T08:27:09.667Z,16.27
2023-03-22T08:30:12.461Z,17.00
2023-03-22T08:33:15.017Z,18.08
2023-03-22T08:36:20.426Z,16.80
2023-03-22T08:39:23.176Z,17.67
2023-03-22T08:42:26.389Z,18.60
2023-03-22T08:45:56.549Z,14.83
2023-03-22T08:49:20.087Z,17.77
2023-03-22T08:52:28.183Z,18.60
2023-03-22T08:55:44.292Z,14.95
2023-03-22T09:02:26.591Z,18.53
2023-03-22T09:05:42.026Z,14.43
2023-03-22T09:09:02.078Z,15.07
2023-03-22T09:12:16.534Z,16.15
2023-03-22T09:15:18.987Z,16.40
2023-03-22T09:18:23.838Z,15.60
2023-03-22T09:21:28.199Z,12.85
2023-03-22T09:24:33.107Z,14.98
2023-03-22T09:27:36.498Z,14.43
2023-03-22T09:30:39.982Z,18.30
2023-03-22T09:33:45.129Z,14.03
2023-03-22T09:36:47.721Z,15.00
2023-03-22T09:39:53.265Z,17.90
2023-03-22T09:43:07.818Z,14.82
2023-03-22T09:46:20.631Z,15.27
2023-03-22T09:49:28.145Z,16.87
2023-03-22T09:52:32.206Z,13.15
2023-03-22T09:55:41.762Z,13.10
2023-03-22T09:58:58.508Z,13.43
2023-03-22T10:02:28.854Z,16.07
2023-03-22T10:05:58.977Z,15.73
2023-03-22T10:09:19.673Z,16.55
2023-03-22T10:12:30.752Z,14.27
2023-03-22T10:15:56.514Z,14.43
2023-03-22T10:19:24.052Z,16.50
2023-03-22T10:22:45.575Z,17.87
2023-03-22T10:25:48.784Z,14.10
2023-03-22T10:29:04.124Z,14.93
2023-03-22T10:32:33.692Z,15.60
2023-03-22T10:35:37.145Z,13.40
2023-03-22T10:38:48.513Z,14.23
2023-03-22T10:41:58.141Z,14.30
2023-03-22T10:45:09.954Z,17.90
2023-03-22T10:48:25.764Z,14.60
2023-03-22T10:51:44.147Z,18.03
2023-03-22T10:55:07.873Z,14.13
2023-03-22T10:58:17.919Z,16.42
2023-03-22T11:05:24.847Z,15.73
2023-03-22T11:08:58.166Z,13.63
2023-03-22T11:12:53.059Z,14.87
2023-03-22T11:17:13.651Z,13.75
2023-03-22T11:20:05.222Z,13.48
2023-03-22T11:23:26.923Z,21.90
2023-03-22T11:26:41.858Z,15.37
2023-03-22T11:29:54.179Z,14.93
2023-03-22T11:33:02.057Z,16.65
2023-03-22T11:36:21.076Z,19.42
2023-03-22T11:39:31.084Z,17.73
2023-03-22T11:42:36.435Z,16.17
2023-03-22T11:45:43.908Z,18.80
2023-03-22T11:48:51.086Z,18.75
2023-03-22T11:51:56.686Z,20.30
2023-03-22T11:55:02.459Z,17.92
2023-03-22T11:58:20.354Z,18.20
2023-03-22T12:01:44.479Z,18.77
2023-03-22T12:08:45.745Z,24.10
2023-03-22T12:11:52.364Z,21.17
2023-03-22T12:15:05.347Z,17.10
2023-03-22T12:18:16.932Z,21.33
2023-03-22T12:21:19.883Z,18.08
2023-03-22T12:24:35.506Z,30.58
2023-03-22T12:27:46.472Z,18.83
2023-03-22T12:30:59.519Z,16.53
2023-03-22T12:34:14.558Z,19.03
2023-03-22T12:37:27.204Z,15.60
2023-03-22T12:40:34.997Z,13.55
2023-03-22T12:43:53.732Z,14.80
2023-03-22T12:47:07.857Z,12.73
2023-03-22T12:50:18.481Z,10.33
2023-03-22T12:53:23.473Z,12.38
2023-03-22T12:56:35.086Z,13.98
2023-03-22T12:59:38.086Z,12.60
2023-03-22T13:02:52.190Z,14.87
2023-03-22T13:11:00.649Z,9.32
2023-03-22T13:14:02.934Z,10.77
2023-03-22T13:17:22.782Z,11.05
2023-03-22T13:20:41.354Z,11.37
2023-03-22T13:24:02.632Z,10.17
2023-03-22T13:27:12.846Z,11.40
2023-03-22T13:30:23.227Z,11.40
2023-03-22T13:33:39.443Z,8.48
2023-03-22T13:36:50.013Z,10.17
2023-03-22T13:39:52.380Z,10.07
2023-03-22T13:42:54.728Z,8.40
2023-03-22T13:46:12.312Z,6.72
2023-03-22T13:49:20.958Z,6.35
2023-03-22T13:52:27.941Z,9.93
2023-03-22T13:55:48.760Z,8.87
2023-03-22T13:58:53.190Z,7.63
2023-03-22T14:02:11.064Z,11.70
2023-03-22T14:05:18.667Z,10.95
2023-03-22T14:08:34.258Z,10.27
2023-03-22T14:11:49.673Z,7.13
2023-03-22T14:15:07.410Z,8.70
2023-03-22T14:18:25.353Z,8.57
2023-03-22T14:21:38.783Z,7.45
